sensor_id;sensor_type;location;lat;lon;timestamp;temperature;humidity
41060;DHT22;26811;53.160;8.202;2023-02-01T00:02:46;6.10;99.90
41060;DHT22;26811;53.160;8.202;2023-02-01T00:07:50;6.20;99.90
41060;DHT22;26811;53.160;8.202;2023-02-01T00:12:51;6.20;99.90
41060;DHT22;26811;53.160;8.202;2023-02-01T00:17:55;6.20;99.90
41060;DHT22;26811;53.160;8.202;2023-02-01T00:22:55;6.20;99.90
41060;DHT22;26811;53.160;8.202;2023-02-01T00:27:56;6.20;99.90
41060;DHT22;26811;53.160;8.202;2023-02-01T00:32:59;6.20;99.90
41060;DHT22;26811;53.160;8.202;2023-02-01T00:37:59;6.20;99.90
41060;DHT22;26811;53.160;8.202;2023-02-01T00:43:00;6.20;99.90
41060;DHT22;26811;53.160;8.202;2023-02-01T00:48:01;6.20;99.90
41060;DHT22;26811;53.160;8.202;2023-02-01T00:53:01;6.10;99.90
41060;DHT22;26811;53.160;8.202;2023-02-01T00:58:02;6.10;99.90
41060;DHT22;26811;53.160;8.202;2023-02-01T01:03:04;6.10;99.90
41060;DHT22;26811;53.160;8.202;2023-02-01T01:08:17;6.10;99.90
41060;DHT22;26811;53.160;8.202;2023-02-01T01:13:18;6.10;99.90
41060;DHT22;26811;53.160;8.202;2023-02-01T01:18:19;6.10;99.90
41060;DHT22;26811;53.160;8.202;2023-02-01T01:23:19;6.10;99.90
41060;DHT22;26811;53.160;8.202;2023-02-01T01:28:20;6.10;99.90
41060;DHT22;26811;53.160;8.202;2023-02-01T01:33:20;6.10;99.90
41060;DHT22;26811;53.160;8.202;2023-02-01T01:38:21;6.10;99.90
41060;DHT22;26811;53.160;8.202;2023-02-01T01:43:21;6.10;99.90
41060;DHT22;26811;53.160;8.202;2023-02-01T01:48:27;6.10;99.90
41060;DHT22;26811;53.160;8.202;2023-02-01T01:53:35;6.20;99.90
41060;DHT22;26811;53.160;8.202;2023-02-01T01:58:38;6.20;99.90
41060;DHT22;26811;53.160;8.202;2023-02-01T02:03:42;6.20;99.90
41060;DHT22;26811;53.160;8.202;2023-02-01T02:08:43;6.20;99.90
41060;DHT22;26811;53.160;8.202;2023-02-01T02:13:50;6.30;99.90
41060;DHT22;26811;53.160;8.202;2023-02-01T02:24:28;6.20;99.90
41060;DHT22;26811;53.160;8.202;2023-02-01T02:30:02;6.20;99.90
41060;DHT22;26811;53.160;8.202;2023-02-01T02:35:16;6.10;99.90
41060;DHT22;26811;53.160;8.202;2023-02-01T02:40:32;6.10;99.90
41060;DHT22;26811;53.160;8.202;2023-02-01T02:45:40;6.10;99.90
41060;DHT22;26811;53.160;8.202;2023-02-01T02:51:05;6.10;99.90
41060;DHT22;26811;53.160;8.202;2023-02-01T02:56:26;6.10;99.90
41060;DHT22;26811;53.160;8.202;2023-02-01T03:01:47;6.10;99.90
41060;DHT22;26811;53.160;8.202;2023-02-01T03:07:13;6.10;99.90
41060;DHT22;26811;53.160;8.202;2023-02-01T03:12:14;5.90;99.90
41060;DHT22;26811;53.160;8.202;2023-02-01T03:17:39;5.70;99.90
41060;DHT22;26811;53.160;8.202;2023-02-01T03:22:43;5.50;99.90
41060;DHT22;26811;53.160;8.202;2023-02-01T03:27:57;5.40;99.90
41060;DHT22;26811;53.160;8.202;2023-02-01T03:33:00;5.30;99.90
41060;DHT22;26811;53.160;8.202;2023-02-01T03:43:30;5.20;99.90
41060;DHT22;26811;53.160;8.202;2023-02-01T03:48:39;5.20;99.90
41060;DHT22;26811;53.160;8.202;2023-02-01T03:53:41;5.10;99.90
41060;DHT22;26811;53.160;8.202;2023-02-01T03:58:43;5.10;99.90
41060;DHT22;26811;53.160;8.202;2023-02-01T04:03:58;5.10;99.90
41060;DHT22;26811;53.160;8.202;2023-02-01T04:08:59;5.10;99.90
41060;DHT22;26811;53.160;8.202;2023-02-01T04:13:59;5.10;99.90
41060;DHT22;26811;53.160;8.202;2023-02-01T04:19:04;5.10;99.90
41060;DHT22;26811;53.160;8.202;2023-02-01T04:24:05;5.10;99.90
41060;DHT22;26811;53.160;8.202;2023-02-01T04:29:06;5.20;99.90
41060;DHT22;26811;53.160;8.202;2023-02-01T04:34:06;5.20;99.90
41060;DHT22;26811;53.160;8.202;2023-02-01T04:39:09;5.20;99.90
41060;DHT22;26811;53.160;8.202;2023-02-01T04:44:17;5.20;99.90
41060;DHT22;26811;53.160;8.202;2023-02-01T04:49:18;5.30;99.90
41060;DHT22;26811;53.160;8.202;2023-02-01T04:54:18;5.20;99.90
41060;DHT22;26811;53.160;8.202;2023-02-01T04:59:19;5.20;99.90
41060;DHT22;26811;53.160;8.202;2023-02-01T05:04:19;5.20;99.90
41060;DHT22;26811;53.160;8.202;2023-02-01T05:09:20;5.20;99.90
41060;DHT22;26811;53.160;8.202;2023-02-01T05:14:22;5.20;99.90
41060;DHT22;26811;53.160;8.202;2023-02-01T05:19:22;5.20;99.90
41060;DHT22;26811;53.160;8.202;2023-02-01T05:24:23;5.10;99.90
41060;DHT22;26811;53.160;8.202;2023-02-01T05:29:23;5.10;99.90
41060;DHT22;26811;53.160;8.202;2023-02-01T05:34:24;5.10;99.90
41060;DHT22;26811;53.160;8.202;2023-02-01T05:39:24;5.10;99.90
41060;DHT22;26811;53.160;8.202;2023-02-01T05:49:29;5.20;99.90
41060;DHT22;26811;53.160;8.202;2023-02-01T05:54:29;5.30;99.90
41060;DHT22;26811;53.160;8.202;2023-02-01T05:59:30;5.30;99.90
41060;DHT22;26811;53.160;8.202;2023-02-01T06:04:30;5.30;99.90
41060;DHT22;26811;53.160;8.202;2023-02-01T06:09:31;5.30;99.90
41060;DHT22;26811;53.160;8.202;2023-02-01T06:14:31;5.30;99.90
41060;DHT22;26811;53.160;8.202;2023-02-01T06:19:32;5.10;99.90
41060;DHT22;26811;53.160;8.202;2023-02-01T06:24:32;5.00;99.90
41060;DHT22;26811;53.160;8.202;2023-02-01T06:29:33;5.00;99.90
41060;DHT22;26811;53.160;8.202;2023-02-01T06:34:34;5.00;99.90
41060;DHT22;26811;53.160;8.202;2023-02-01T06:39:34;5.10;99.90
41060;DHT22;26811;53.160;8.202;2023-02-01T06:44:35;5.20;99.90
41060;DHT22;26811;53.160;8.202;2023-02-01T06:49:35;5.30;99.90
41060;DHT22;26811;53.160;8.202;2023-02-01T06:54:36;5.40;99.90
41060;DHT22;26811;53.160;8.202;2023-02-01T06:59:37;5.50;99.90
41060;DHT22;26811;53.160;8.202;2023-02-01T07:04:38;5.50;99.90
41060;DHT22;26811;53.160;8.202;2023-02-01T07:09:38;5.50;99.90
41060;DHT22;26811;53.160;8.202;2023-02-01T07:14:39;5.40;99.90
41060;DHT22;26811;53.160;8.202;2023-02-01T07:19:39;5.30;99.90
41060;DHT22;26811;53.160;8.202;2023-02-01T07:24:40;5.30;99.90
41060;DHT22;26811;53.160;8.202;2023-02-01T07:29:40;5.30;99.90
41060;DHT22;26811;53.160;8.202;2023-02-01T07:34:41;5.40;99.90
41060;DHT22;26811;53.160;8.202;2023-02-01T07:39:41;5.40;99.90
41060;DHT22;26811;53.160;8.202;2023-02-01T07:44:42;5.30;99.90
41060;DHT22;26811;53.160;8.202;2023-02-01T07:49:42;5.30;99.90
41060;DHT22;26811;53.160;8.202;2023-02-01T07:54:43;5.30;99.90
41060;DHT22;26811;53.160;8.202;2023-02-01T07:59:43;5.40;99.90
41060;DHT22;26811;53.160;8.202;2023-02-01T08:05:10;5.50;99.90
41060;DHT22;26811;53.160;8.202;2023-02-01T08:10:10;5.60;99.90
41060;DHT22;26811;53.160;8.202;2023-02-01T08:15:11;5.50;99.90
41060;DHT22;26811;53.160;8.202;2023-02-01T08:20:12;5.60;99.90
41060;DHT22;26811;53.160;8.202;2023-02-01T08:25:17;5.80;99.90
41060;DHT22;26811;53.160;8.202;2023-02-01T08:30:17;5.80;99.90
41060;DHT22;26811;53.160;8.202;2023-02-01T08:35:18;5.90;99.90
41060;DHT22;26811;53.160;8.202;2023-02-01T08:40:19;5.90;99.90
41060;DHT22;26811;53.160;8.202;2023-02-01T08:45:24;5.90;99.90
41060;DHT22;26811;53.160;8.202;2023-02-01T08:50:25;6.00;99.90
41060;DHT22;26811;53.160;8.202;2023-02-01T08:55:25;6.00;99.90
41060;DHT22;26811;53.160;8.202;2023-02-01T09:00:26;6.10;99.90
41060;DHT22;26811;53.160;8.202;2023-02-01T09:05:27;6.10;99.90
41060;DHT22;26811;53.160;8.202;2023-02-01T09:10:29;6.20;99.90
41060;DHT22;26811;53.160;8.202;2023-02-01T09:15:30;6.20;99.90
41060;DHT22;26811;53.160;8.202;2023-02-01T09:20:30;6.20;99.90
41060;DHT22;26811;53.160;8.202;2023-02-01T09:25:31;6.30;99.90
41060;DHT22;26811;53.160;8.202;2023-02-01T09:30:32;6.30;99.90
41060;DHT22;26811;53.160;8.202;2023-02-01T09:35:33;6.40;99.90
41060;DHT22;26811;53.160;8.202;2023-02-01T09:40:35;6.50;99.90
41060;DHT22;26811;53.160;8.202;2023-02-01T09:51:10;6.50;99.90
41060;DHT22;26811;53.160;8.202;2023-02-01T09:56:18;6.50;99.90
41060;DHT22;26811;53.160;8.202;2023-02-01T10:01:22;6.50;99.90
41060;DHT22;26811;53.160;8.202;2023-02-01T10:17:45;6.40;99.90
41060;DHT22;26811;53.160;8.202;2023-02-01T10:28:24;6.20;99.90
41060;DHT22;26811;53.160;8.202;2023-02-01T10:33:34;6.20;99.90
41060;DHT22;26811;53.160;8.202;2023-02-01T10:38:36;6.20;99.90
41060;DHT22;26811;53.160;8.202;2023-02-01T10:43:37;6.10;99.90
41060;DHT22;26811;53.160;8.202;2023-02-01T10:48:39;6.20;99.90
41060;DHT22;26811;53.160;8.202;2023-02-01T10:53:42;6.10;99.90
41060;DHT22;26811;53.160;8.202;2023-02-01T10:58:47;6.00;99.90
41060;DHT22;26811;53.160;8.202;2023-02-01T11:03:55;6.00;99.90
41060;DHT22;26811;53.160;8.202;2023-02-01T11:19:24;5.90;99.90
41060;DHT22;26811;53.160;8.202;2023-02-01T11:24:35;5.70;99.90
41060;DHT22;26811;53.160;8.202;2023-02-01T11:29:43;5.60;99.90
41060;DHT22;26811;53.160;8.202;2023-02-01T11:34:47;5.50;99.90
41060;DHT22;26811;53.160;8.202;2023-02-01T11:45:25;5.50;99.90
41060;DHT22;26811;53.160;8.202;2023-02-01T11:50:42;5.50;99.90
41060;DHT22;26811;53.160;8.202;2023-02-01T11:55:52;5.50;99.90
41060;DHT22;26811;53.160;8.202;2023-02-01T12:01:13;5.60;99.90
41060;DHT22;26811;53.160;8.202;2023-02-01T12:43:49;4.50;99.90
41060;DHT22;26811;53.160;8.202;2023-02-01T12:54:24;4.70;99.90
41060;DHT22;26811;53.160;8.202;2023-02-01T12:59:33;4.60;99.90
41060;DHT22;26811;53.160;8.202;2023-02-01T13:04:46;4.60;99.90
41060;DHT22;26811;53.160;8.202;2023-02-01T13:10:03;4.60;99.90
41060;DHT22;26811;53.160;8.202;2023-02-01T13:15:16;4.60;99.90
41060;DHT22;26811;53.160;8.202;2023-02-01T13:25:43;5.20;99.90
41060;DHT22;26811;53.160;8.202;2023-02-01T13:46:29;5.50;99.90
41060;DHT22;26811;53.160;8.202;2023-02-01T13:51:42;5.40;99.90
41060;DHT22;26811;53.160;8.202;2023-02-01T13:56:43;5.40;99.90
41060;DHT22;26811;53.160;8.202;2023-02-01T14:01:44;5.50;99.90
41060;DHT22;26811;53.160;8.202;2023-02-01T14:06:46;5.60;99.90
41060;DHT22;26811;53.160;8.202;2023-02-01T14:11:49;5.70;99.90
41060;DHT22;26811;53.160;8.202;2023-02-01T14:21:56;6.00;99.90
41060;DHT22;26811;53.160;8.202;2023-02-01T14:32:21;6.00;99.90
41060;DHT22;26811;53.160;8.202;2023-02-01T14:37:32;6.10;99.90
41060;DHT22;26811;53.160;8.202;2023-02-01T14:42:46;6.40;99.90
41060;DHT22;26811;53.160;8.202;2023-02-01T14:47:55;6.70;99.90
41060;DHT22;26811;53.160;8.202;2023-02-01T14:53:21;6.90;99.90
41060;DHT22;26811;53.160;8.202;2023-02-01T14:58:57;7.00;99.90
41060;DHT22;26811;53.160;8.202;2023-02-01T15:04:12;6.90;99.90
41060;DHT22;26811;53.160;8.202;2023-02-01T15:09:55;6.70;99.90
41060;DHT22;26811;53.160;8.202;2023-02-01T15:15:11;6.60;99.90
41060;DHT22;26811;53.160;8.202;2023-02-01T15:20:24;6.40;99.90
41060;DHT22;26811;53.160;8.202;2023-02-01T15:25:27;6.30;99.90
41060;DHT22;26811;53.160;8.202;2023-02-01T15:30:34;6.40;99.90
41060;DHT22;26811;53.160;8.202;2023-02-01T15:35:38;6.50;99.90
41060;DHT22;26811;53.160;8.202;2023-02-01T15:46:01;6.80;99.90
41060;DHT22;26811;53.160;8.202;2023-02-01T15:51:03;6.70;99.90
41060;DHT22;26811;53.160;8.202;2023-02-01T15:56:04;6.60;99.90
41060;DHT22;26811;53.160;8.202;2023-02-01T16:01:06;5.70;99.90
41060;DHT22;26811;53.160;8.202;2023-02-01T16:06:11;5.00;99.90
41060;DHT22;26811;53.160;8.202;2023-02-01T16:16:12;4.30;99.90
41060;DHT22;26811;53.160;8.202;2023-02-01T16:21:14;4.20;99.90
41060;DHT22;26811;53.160;8.202;2023-02-01T16:26:14;4.20;99.90
41060;DHT22;26811;53.160;8.202;2023-02-01T16:31:17;4.10;99.90
41060;DHT22;26811;53.160;8.202;2023-02-01T16:36:21;4.20;99.90
41060;DHT22;26811;53.160;8.202;2023-02-01T16:41:23;4.30;99.90
41060;DHT22;26811;53.160;8.202;2023-02-01T16:46:26;4.40;99.90
41060;DHT22;26811;53.160;8.202;2023-02-01T16:51:31;4.50;99.90
41060;DHT22;26811;53.160;8.202;2023-02-01T16:56:33;4.60;99.90
41060;DHT22;26811;53.160;8.202;2023-02-01T17:01:35;4.60;99.90
41060;DHT22;26811;53.160;8.202;2023-02-01T17:06:39;4.80;99.90
41060;DHT22;26811;53.160;8.202;2023-02-01T17:11:41;4.70;99.90
41060;DHT22;26811;53.160;8.202;2023-02-01T17:16:42;4.80;99.90
41060;DHT22;26811;53.160;8.202;2023-02-01T17:21:49;4.80;99.90
41060;DHT22;26811;53.160;8.202;2023-02-01T17:26:51;4.80;99.90
41060;DHT22;26811;53.160;8.202;2023-02-01T17:31:54;4.70;99.90
41060;DHT22;26811;53.160;8.202;2023-02-01T17:36:55;4.80;99.90
41060;DHT22;26811;53.160;8.202;2023-02-01T17:41:59;4.90;99.90
41060;DHT22;26811;53.160;8.202;2023-02-01T17:47:00;4.80;99.90
41060;DHT22;26811;53.160;8.202;2023-02-01T17:52:01;4.90;99.90
41060;DHT22;26811;53.160;8.202;2023-02-01T17:57:01;5.00;99.90
41060;DHT22;26811;53.160;8.202;2023-02-01T18:02:03;5.00;99.90
41060;DHT22;26811;53.160;8.202;2023-02-01T18:07:03;5.10;99.90
41060;DHT22;26811;53.160;8.202;2023-02-01T18:12:04;5.20;99.90
41060;DHT22;26811;53.160;8.202;2023-02-01T18:17:05;5.10;99.90
41060;DHT22;26811;53.160;8.202;2023-02-01T18:22:08;5.20;99.90
41060;DHT22;26811;53.160;8.202;2023-02-01T18:27:12;5.10;99.90
41060;DHT22;26811;53.160;8.202;2023-02-01T18:32:12;5.30;99.90
41060;DHT22;26811;53.160;8.202;2023-02-01T18:37:13;5.30;99.90
41060;DHT22;26811;53.160;8.202;2023-02-01T18:42:14;5.20;99.90
41060;DHT22;26811;53.160;8.202;2023-02-01T18:47:14;5.30;99.90
41060;DHT22;26811;53.160;8.202;2023-02-01T18:52:15;5.30;99.90
41060;DHT22;26811;53.160;8.202;2023-02-01T18:57:15;5.30;99.90
41060;DHT22;26811;53.160;8.202;2023-02-01T19:02:16;5.30;99.90
41060;DHT22;26811;53.160;8.202;2023-02-01T19:07:17;5.30;99.90
41060;DHT22;26811;53.160;8.202;2023-02-01T19:12:18;5.10;99.90
41060;DHT22;26811;53.160;8.202;2023-02-01T19:17:19;5.00;99.90
41060;DHT22;26811;53.160;8.202;2023-02-01T19:22:20;4.90;99.90
41060;DHT22;26811;53.160;8.202;2023-02-01T19:27:20;5.00;99.90
41060;DHT22;26811;53.160;8.202;2023-02-01T19:32:21;4.90;99.90
41060;DHT22;26811;53.160;8.202;2023-02-01T19:37:21;4.90;99.90
41060;DHT22;26811;53.160;8.202;2023-02-01T19:42:22;4.90;99.90
41060;DHT22;26811;53.160;8.202;2023-02-01T19:47:24;5.00;99.90
41060;DHT22;26811;53.160;8.202;2023-02-01T19:52:24;4.90;99.90
41060;DHT22;26811;53.160;8.202;2023-02-01T19:57:26;4.80;99.90
41060;DHT22;26811;53.160;8.202;2023-02-01T20:02:26;4.80;99.90
41060;DHT22;26811;53.160;8.202;2023-02-01T20:07:28;4.80;99.90
41060;DHT22;26811;53.160;8.202;2023-02-01T20:12:29;4.80;99.90
41060;DHT22;26811;53.160;8.202;2023-02-01T20:17:29;4.90;99.90
41060;DHT22;26811;53.160;8.202;2023-02-01T20:22:30;5.10;99.90
41060;DHT22;26811;53.160;8.202;2023-02-01T20:27:31;5.20;99.90
41060;DHT22;26811;53.160;8.202;2023-02-01T20:32:31;5.30;99.90
41060;DHT22;26811;53.160;8.202;2023-02-01T20:37:32;5.30;99.90
41060;DHT22;26811;53.160;8.202;2023-02-01T20:42:36;5.20;99.90
41060;DHT22;26811;53.160;8.202;2023-02-01T20:47:37;5.30;99.90
41060;DHT22;26811;53.160;8.202;2023-02-01T20:52:38;5.30;99.90
41060;DHT22;26811;53.160;8.202;2023-02-01T20:57:38;5.40;99.90
41060;DHT22;26811;53.160;8.202;2023-02-01T21:02:39;5.30;99.90
41060;DHT22;26811;53.160;8.202;2023-02-01T21:07:39;5.30;99.90
41060;DHT22;26811;53.160;8.202;2023-02-01T21:12:40;5.30;99.90
41060;DHT22;26811;53.160;8.202;2023-02-01T21:17:41;5.40;99.90
41060;DHT22;26811;53.160;8.202;2023-02-01T21:22:41;5.40;99.90
41060;DHT22;26811;53.160;8.202;2023-02-01T21:27:42;5.40;99.90
41060;DHT22;26811;53.160;8.202;2023-02-01T21:32:42;5.40;99.90
41060;DHT22;26811;53.160;8.202;2023-02-01T21:37:43;5.30;99.90
41060;DHT22;26811;53.160;8.202;2023-02-01T21:42:44;5.40;99.90
41060;DHT22;26811;53.160;8.202;2023-02-01T21:47:45;5.50;99.90
41060;DHT22;26811;53.160;8.202;2023-02-01T21:52:46;5.50;99.90
41060;DHT22;26811;53.160;8.202;2023-02-01T21:57:46;5.70;99.90
41060;DHT22;26811;53.160;8.202;2023-02-01T22:02:47;5.70;99.90
41060;DHT22;26811;53.160;8.202;2023-02-01T22:07:47;5.80;99.90
41060;DHT22;26811;53.160;8.202;2023-02-01T22:12:48;5.90;99.90
41060;DHT22;26811;53.160;8.202;2023-02-01T22:17:49;5.90;99.90
41060;DHT22;26811;53.160;8.202;2023-02-01T22:22:49;5.90;99.90
41060;DHT22;26811;53.160;8.202;2023-02-01T22:27:50;5.90;99.90
41060;DHT22;26811;53.160;8.202;2023-02-01T22:32:51;5.90;99.90
41060;DHT22;26811;53.160;8.202;2023-02-01T22:37:51;6.00;99.90
41060;DHT22;26811;53.160;8.202;2023-02-01T22:42:52;6.00;99.90
41060;DHT22;26811;53.160;8.202;2023-02-01T22:47:53;6.10;99.90
41060;DHT22;26811;53.160;8.202;2023-02-01T22:52:53;6.10;99.90
41060;DHT22;26811;53.160;8.202;2023-02-01T22:57:54;6.20;99.90
41060;DHT22;26811;53.160;8.202;2023-02-01T23:02:54;6.20;99.90
41060;DHT22;26811;53.160;8.202;2023-02-01T23:07:55;6.20;99.90
41060;DHT22;26811;53.160;8.202;2023-02-01T23:12:55;6.20;99.90
41060;DHT22;26811;53.160;8.202;2023-02-01T23:17:56;6.20;99.90
41060;DHT22;26811;53.160;8.202;2023-02-01T23:22:56;6.10;99.90
41060;DHT22;26811;53.160;8.202;2023-02-01T23:27:57;6.10;99.90
41060;DHT22;26811;53.160;8.202;2023-02-01T23:32:58;6.10;99.90
41060;DHT22;26811;53.160;8.202;2023-02-01T23:37:58;6.00;99.90
41060;DHT22;26811;53.160;8.202;2023-02-01T23:42:59;6.00;99.90
41060;DHT22;26811;53.160;8.202;2023-02-01T23:48:18;5.90;99.90
41060;DHT22;26811;53.160;8.202;2023-02-01T23:53:18;6.00;99.90
41060;DHT22;26811;53.160;8.202;2023-02-01T23:58:20;6.10;99.90
